createdAt,value
2022-09-15T00:01:24.248Z,100218.06
2022-09-15T00:03:50.963Z,100215.66
2022-09-15T00:06:17.315Z,100218.31
2022-09-15T00:08:43.784Z,100211.34
2022-09-15T00:11:14.604Z,100219.66
2022-09-15T00:13:41.259Z,100225.22
2022-09-15T00:16:08.515Z,100221.16
2022-09-15T00:18:35.491Z,100224.25
2022-09-15T00:21:05.049Z,100219.03
2022-09-15T00:23:31.366Z,100225.00
2022-09-15T00:25:57.696Z,100227.16
2022-09-15T00:28:24.084Z,100226.16
2022-09-15T00:30:51.755Z,100230.06
2022-09-15T00:33:18.877Z,100219.19
2022-09-15T00:35:46.816Z,100228.44
2022-09-15T00:38:14.106Z,100222.19
2022-09-15T00:40:47.523Z,100222.84
2022-09-15T00:43:14.701Z,100215.38
2022-09-15T00:45:41.325Z,100214.34
2022-09-15T00:48:11.036Z,100210.88
2022-09-15T00:50:38.575Z,100217.75
2022-09-15T00:53:08.203Z,100224.19
2022-09-15T00:55:39.976Z,100225.44
2022-09-15T00:58:11.209Z,100231.72
2022-09-15T01:00:39.560Z,100225.22
2022-09-15T01:03:05.894Z,100229.47
2022-09-15T01:05:42.075Z,100222.19
2022-09-15T01:08:16.640Z,100221.56
2022-09-15T01:10:43.075Z,100220.19
2022-09-15T01:13:11.402Z,100218.97
2022-09-15T01:15:59.177Z,100217.16
2022-09-15T01:18:31.544Z,100209.00
2022-09-15T01:21:06.394Z,100206.28
2022-09-15T01:23:51.143Z,100211.94
2022-09-15T01:26:17.531Z,100215.59
2022-09-15T01:28:53.161Z,100210.72
2022-09-15T01:31:23.580Z,100214.38
2022-09-15T01:33:57.969Z,100213.00
2022-09-15T01:36:28.716Z,100209.16
2022-09-15T01:39:03.082Z,100212.22
2022-09-15T01:41:50.541Z,100211.22
2022-09-15T01:44:23.244Z,100209.59
2022-09-15T01:46:52.219Z,100210.81
2022-09-15T01:49:21.005Z,100204.97
2022-09-15T01:51:48.437Z,100207.81
2022-09-15T01:54:15.873Z,100211.88
2022-09-15T01:56:42.704Z,100213.06
2022-09-15T01:59:09.543Z,100213.91
2022-09-15T02:01:47.216Z,100210.25
2022-09-15T02:04:13.636Z,100216.34
2022-09-15T02:06:50.010Z,100210.06
2022-09-15T02:09:29.598Z,100208.06
2022-09-15T02:12:02.422Z,100214.56
2022-09-15T02:14:38.990Z,100222.44
2022-09-15T02:17:05.587Z,100219.63
2022-09-15T02:19:35.064Z,100214.78
2022-09-15T02:22:07.670Z,100219.22
2022-09-15T02:24:40.366Z,100216.38
2022-09-15T02:27:12.332Z,100222.47
2022-09-15T02:29:39.365Z,100219.84
2022-09-15T02:32:07.819Z,100221.06
2022-09-15T02:34:38.577Z,100221.06
2022-09-15T02:37:05.231Z,100223.28
2022-09-15T02:39:35.089Z,100220.28
2022-09-15T02:42:02.478Z,100219.06
2022-09-15T02:44:30.888Z,100224.53
2022-09-15T02:46:58.613Z,100227.97
2022-09-15T02:49:24.961Z,100224.31
2022-09-15T02:51:51.372Z,100225.31
2022-09-15T02:54:17.966Z,100227.53
2022-09-15T02:56:44.719Z,100228.19
2022-09-15T02:59:11.073Z,100228.59
2022-09-15T03:01:38.096Z,100223.94
2022-09-15T03:04:04.735Z,100225.19
2022-09-15T03:06:34.544Z,100222.53
2022-09-15T03:09:02.712Z,100217.28
2022-09-15T03:11:29.826Z,100219.72
2022-09-15T03:13:57.298Z,100214.28
2022-09-15T03:16:24.279Z,100215.88
2022-09-15T03:18:51.008Z,100212.25
2022-09-15T03:21:18.468Z,100210.22
2022-09-15T03:23:45.356Z,100222.94
2022-09-15T03:26:12.078Z,100222.13
2022-09-15T03:28:38.957Z,100230.00
2022-09-15T03:31:05.963Z,100232.84
2022-09-15T03:33:32.460Z,100231.63
2022-09-15T03:35:58.792Z,100232.03
2022-09-15T03:38:25.471Z,100235.47
2022-09-15T03:40:58.203Z,100240.72
2022-09-15T03:43:24.647Z,100241.16
2022-09-15T03:45:51.059Z,100249.63
2022-09-15T03:48:17.455Z,100244.16
2022-09-15T03:50:43.795Z,100244.75
2022-09-15T03:53:10.124Z,100244.75
2022-09-15T03:55:36.471Z,100243.94
2022-09-15T03:58:02.820Z,100246.19
2022-09-15T04:00:29.359Z,100236.28
2022-09-15T04:02:55.802Z,100240.31
2022-09-15T04:05:22.125Z,100236.28
2022-09-15T04:07:49.687Z,100232.63
2022-09-15T04:10:16.533Z,100233.88
2022-09-15T04:12:43.139Z,100238.69
2022-09-15T04:15:09.831Z,100242.56
2022-09-15T04:17:36.275Z,100242.56
2022-09-15T04:20:07.398Z,100240.72
2022-09-15T04:22:34.267Z,100238.09
2022-09-15T04:25:00.640Z,100238.09
2022-09-15T04:27:27.640Z,100229.22
2022-09-15T04:29:53.983Z,100232.47
2022-09-15T04:32:20.489Z,100240.31
2022-09-15T04:34:46.854Z,100243.13
2022-09-15T04:37:13.248Z,100238.69
2022-09-15T04:39:39.608Z,100231.66
2022-09-15T04:42:07.733Z,100237.91
2022-09-15T04:44:34.203Z,100232.06
2022-09-15T04:47:00.663Z,100239.13
2022-09-15T04:49:28.617Z,100237.69
2022-09-15T04:51:55.164Z,100241.16
2022-09-15T04:54:21.583Z,100238.91
2022-09-15T04:56:48.861Z,100234.47
2022-09-15T04:59:16.379Z,100239.13
2022-09-15T05:01:42.925Z,100235.47
2022-09-15T05:04:09.888Z,100235.09
2022-09-15T05:06:37.512Z,100236.28
2022-09-15T05:09:09.744Z,100241.53
2022-09-15T05:11:36.522Z,100244.97
2022-09-15T05:14:03.008Z,100247.59
2022-09-15T05:16:29.737Z,100252.03
2022-09-15T05:18:57.221Z,100251.41
2022-09-15T05:21:23.979Z,100252.03
2022-09-15T05:23:51.763Z,100249.84
2022-09-15T05:26:20.069Z,100260.72
2022-09-15T05:28:46.640Z,100265.38
2022-09-15T05:31:17.731Z,100263.97
2022-09-15T05:33:44.953Z,100279.50
2022-09-15T05:36:11.810Z,100269.00
2022-09-15T05:38:38.152Z,100270.66
2022-09-15T05:41:05.851Z,100276.31
2022-09-15T05:43:32.802Z,100269.44
2022-09-15T05:45:59.358Z,100272.84
2022-09-15T05:48:25.962Z,100278.91
2022-09-15T05:50:53.020Z,100272.63
2022-09-15T05:53:19.573Z,100273.03
2022-09-15T05:55:46.228Z,100270.63
2022-09-15T05:58:13.076Z,100274.06
2022-09-15T06:00:41.530Z,100267.41
2022-09-15T06:03:13.210Z,100281.13
2022-09-15T06:05:39.585Z,100287.38
2022-09-15T06:08:05.945Z,100272.84
2022-09-15T06:10:32.544Z,100280.13
2022-09-15T06:12:58.930Z,100286.78
2022-09-15T06:15:25.526Z,100288.41
2022-09-15T06:17:52.130Z,100286.16
2022-09-15T06:20:18.966Z,100293.44
2022-09-15T06:22:45.847Z,100294.66
2022-09-15T06:25:13.187Z,100289.41
2022-09-15T06:27:39.948Z,100291.63
2022-09-15T06:30:06.996Z,100297.91
2022-09-15T06:32:33.877Z,100294.06
2022-09-15T06:35:00.491Z,100296.69
2022-09-15T06:37:26.850Z,100290.81
2022-09-15T06:39:53.246Z,100293.25
2022-09-15T06:42:19.681Z,100296.91
2022-09-15T06:44:47.412Z,100300.13
2022-09-15T06:47:14.840Z,100297.91
2022-09-15T06:49:41.204Z,100293.88
2022-09-15T06:52:07.624Z,100311.47
2022-09-15T06:54:34.640Z,100314.47
2022-09-15T06:57:00.995Z,100309.63
2022-09-15T06:59:27.356Z,100310.22
2022-09-15T07:01:54.559Z,100312.06
2022-09-15T07:04:21.731Z,100316.09
2022-09-15T07:06:48.721Z,100317.50
2022-09-15T07:09:15.157Z,100315.47
2022-09-15T07:11:41.527Z,100317.06
2022-09-15T07:14:08.133Z,100323.53
2022-09-15T07:16:34.592Z,100322.34
2022-09-15T07:19:03.376Z,100324.53
2022-09-15T07:21:29.742Z,100331.00
2022-09-15T07:23:56.786Z,100329.22
2022-09-15T07:26:27.189Z,100325.56
2022-09-15T07:28:54.936Z,100327.97
2022-09-15T07:31:22.848Z,100328.56
2022-09-15T07:33:49.322Z,100342.16
2022-09-15T07:36:15.839Z,100338.50
2022-09-15T07:38:43.592Z,100345.56
2022-09-15T07:41:11.300Z,100351.81
2022-09-15T07:43:38.149Z,100358.91
2022-09-15T07:46:04.767Z,100370.47
2022-09-15T07:48:31.936Z,100370.84
2022-09-15T07:50:59.816Z,100374.06
2022-09-15T07:53:29.679Z,100371.88
2022-09-15T07:55:56.215Z,100374.69
2022-09-15T07:58:22.984Z,100378.13
2022-09-15T08:00:49.592Z,100378.53
2022-09-15T08:03:16.237Z,100377.88
2022-09-15T08:05:45.600Z,100382.72
2022-09-15T08:08:12.835Z,100377.84
2022-09-15T08:10:40.972Z,100377.16
2022-09-15T08:13:07.412Z,100383.03
2022-09-15T08:15:35.441Z,100382.81
2022-09-15T08:18:02.334Z,100385.59
2022-09-15T08:20:28.853Z,100387.63
2022-09-15T08:22:55.215Z,100385.97
2022-09-15T08:25:21.570Z,100393.13
2022-09-15T08:27:47.932Z,100392.31
2022-09-15T08:30:14.281Z,100405.31
2022-09-15T08:32:40.696Z,100408.31
2022-09-15T08:35:08.578Z,100406.84
2022-09-15T08:37:35.143Z,100398.56
2022-09-15T08:40:01.806Z,100400.56
2022-09-15T08:42:30.451Z,100403.38
2022-09-15T08:44:59.415Z,100417.84
2022-09-15T08:47:28.789Z,100407.25
2022-09-15T08:50:01.996Z,100410.50
2022-09-15T08:52:28.342Z,100421.78
2022-09-15T08:54:57.013Z,100416.09
2022-09-15T08:57:24.468Z,100422.91
2022-09-15T08:59:50.841Z,100434.03
2022-09-15T09:02:32.752Z,100427.50
2022-09-15T09:04:59.193Z,100430.72
2022-09-15T09:07:31.423Z,100426.03
2022-09-15T09:10:16.594Z,100427.44
2022-09-15T09:12:52.113Z,100424.03
2022-09-15T09:15:21.453Z,100422.38
2022-09-15T09:17:57.022Z,100418.03
2022-09-15T09:20:23.343Z,100425.88
2022-09-15T09:22:53.037Z,100422.44
2022-09-15T09:25:27.680Z,100425.41
2022-09-15T09:27:55.437Z,100435.78
2022-09-15T09:30:23.052Z,100427.03
2022-09-15T09:33:08.135Z,100429.69
2022-09-15T09:35:37.797Z,100427.69
2022-09-15T09:38:04.237Z,100429.47
2022-09-15T09:40:31.600Z,100437.06
2022-09-15T09:42:59.187Z,100435.22
2022-09-15T09:45:26.354Z,100436.50
2022-09-15T09:47:52.802Z,100440.97
2022-09-15T09:50:36.244Z,100431.94
2022-09-15T09:53:20.178Z,100441.31
2022-09-15T09:55:46.547Z,100434.94
2022-09-15T09:58:15.635Z,100438.41
2022-09-15T10:00:42.076Z,100432.44
2022-09-15T10:03:14.406Z,100429.09
2022-09-15T10:05:41.394Z,100431.66
2022-09-15T10:08:14.567Z,100424.63
2022-09-15T10:10:49.358Z,100431.16
2022-09-15T10:13:15.722Z,100432.16
2022-09-15T10:15:42.956Z,100434.13
2022-09-15T10:18:27.925Z,100440.47
2022-09-15T10:20:54.565Z,100432.84
2022-09-15T10:23:21.644Z,100432.41
2022-09-15T10:26:03.602Z,100432.41
2022-09-15T10:28:30.052Z,100423.63
2022-09-15T10:31:04.946Z,100424.03
2022-09-15T10:33:32.655Z,100426.09
2022-09-15T10:36:04.167Z,100420.72
2022-09-15T10:38:30.538Z,100425.72
2022-09-15T10:41:15.754Z,100428.16
2022-09-15T10:43:42.100Z,100421.38
2022-09-15T10:46:08.511Z,100424.63
2022-09-15T10:48:48.893Z,100424.03
2022-09-15T10:51:24.804Z,100427.44
2022-09-15T10:53:57.704Z,100430.50
2022-09-15T10:56:33.787Z,100422.56
2022-09-15T10:59:18.919Z,100420.91
2022-09-15T11:01:58.465Z,100410.19
2022-09-15T11:04:30.702Z,100407.78
2022-09-15T11:07:00.062Z,100412.03
2022-09-15T11:09:29.480Z,100416.19
2022-09-15T11:12:19.771Z,100432.41
2022-09-15T11:14:52.130Z,100437.00
2022-09-15T11:17:24.544Z,100432.81
2022-09-15T11:20:07.693Z,100434.63
2022-09-15T11:22:41.273Z,100430.00
2022-09-15T11:25:17.529Z,100433.34
2022-09-15T11:28:02.573Z,100429.75
2022-09-15T11:30:38.435Z,100437.91
2022-09-15T11:33:16.942Z,100428.28
2022-09-15T11:36:02.541Z,100443.03
2022-09-15T11:38:31.667Z,100436.44
2022-09-15T11:41:11.581Z,100440.59
2022-09-15T11:43:45.927Z,100430.91
2022-09-15T11:46:19.053Z,100437.31
2022-09-15T11:48:50.174Z,100432.47
2022-09-15T11:51:19.259Z,100433.41
2022-09-15T11:53:48.718Z,100429.81
2022-09-15T11:56:18.345Z,100437.06
2022-09-15T11:58:44.701Z,100443.72
2022-09-15T12:01:11.136Z,100440.03
2022-09-15T12:03:40.203Z,100440.19
2022-09-15T12:06:09.583Z,100443.72
2022-09-15T12:08:37.378Z,100439.59
2022-09-15T12:11:07.732Z,100442.59
2022-09-15T12:13:34.368Z,100445.31
2022-09-15T12:16:03.973Z,100444.72
2022-09-15T12:18:40.189Z,100450.16
2022-09-15T12:21:09.194Z,100437.53
2022-09-15T12:23:36.310Z,100450.25
2022-09-15T12:26:20.131Z,100448.00
2022-09-15T12:28:46.501Z,100453.06
2022-09-15T12:31:28.349Z,100456.34
2022-09-15T12:33:56.055Z,100448.97
2022-09-15T12:36:34.195Z,100450.25
2022-09-15T12:39:02.018Z,100465.19
2022-09-15T12:41:29.039Z,100470.88
2022-09-15T12:43:58.141Z,100468.97
2022-09-15T12:46:25.447Z,100477.44
2022-09-15T12:48:54.904Z,100474.00
2022-09-15T12:51:23.243Z,100478.25
2022-09-15T12:53:52.882Z,100479.44
2022-09-15T12:56:24.523Z,100474.75
2022-09-15T12:58:51.982Z,100478.66
2022-09-15T13:01:18.852Z,100482.44
2022-09-15T13:03:45.597Z,100474.91
2022-09-15T13:06:24.144Z,100490.72
2022-09-15T13:08:54.717Z,100489.19
2022-09-15T13:11:27.027Z,100491.84
2022-09-15T13:13:59.016Z,100491.63
2022-09-15T13:16:27.181Z,100490.78
2022-09-15T13:18:59.053Z,100481.81
2022-09-15T13:21:26.436Z,100478.63
2022-09-15T13:23:52.976Z,100485.59
2022-09-15T13:26:23.914Z,100490.13
2022-09-15T13:28:54.149Z,100487.34
2022-09-15T13:31:34.337Z,100496.03
2022-09-15T13:40:04.529Z,100480.25
2022-09-15T13:42:33.905Z,100470.34
2022-09-15T13:45:19.879Z,100473.50
2022-09-15T13:47:46.210Z,100467.13
2022-09-15T13:50:15.191Z,100471.44
2022-09-15T13:52:59.738Z,100463.88
2022-09-15T13:55:32.639Z,100463.66
2022-09-15T14:00:56.228Z,100448.34
2022-09-15T14:03:28.536Z,100457.84
2022-09-15T14:05:55.442Z,100450.28
2022-09-15T14:08:27.157Z,100452.81
2022-09-15T14:10:53.483Z,100457.00
2022-09-15T14:13:21.113Z,100455.84
2022-09-15T14:16:01.140Z,100455.34
2022-09-15T14:18:28.030Z,100451.84
2022-09-15T14:21:01.999Z,100455.97
2022-09-15T14:23:28.996Z,100455.91
2022-09-15T14:25:56.944Z,100459.41
2022-09-15T14:28:30.810Z,100450.59
2022-09-15T14:30:59.254Z,100452.91
2022-09-15T14:33:31.608Z,100445.97
2022-09-15T14:36:00.650Z,100457.25
2022-09-15T14:38:27.030Z,100458.31
2022-09-15T14:40:56.743Z,100448.06
2022-09-15T14:43:35.457Z,100449.50
2022-09-15T14:46:12.316Z,100452.47
2022-09-15T14:48:38.724Z,100448.06
2022-09-15T14:51:11.141Z,100442.97
2022-09-15T14:53:39.783Z,100444.41
2022-09-15T14:56:12.293Z,100452.06
2022-09-15T14:58:42.666Z,100448.47
2022-09-15T15:01:27.815Z,100448.97
2022-09-15T15:03:54.583Z,100452.50
2022-09-15T15:06:29.083Z,100449.59
2022-09-15T15:09:16.135Z,100457.19
2022-09-15T15:11:42.759Z,100456.66
2022-09-15T15:14:11.276Z,100447.31
2022-09-15T15:16:37.838Z,100452.91
2022-09-15T15:19:04.347Z,100454.66
2022-09-15T15:21:33.587Z,100448.84
2022-09-15T15:23:59.970Z,100453.91
2022-09-15T15:26:29.543Z,100451.44
2022-09-15T15:28:55.884Z,100446.03
2022-09-15T15:31:24.473Z,100448.91
2022-09-15T15:33:55.783Z,100449.72
2022-09-15T15:36:23.890Z,100452.38
2022-09-15T15:38:54.814Z,100455.28
2022-09-15T15:41:25.816Z,100456.59
2022-09-15T15:44:08.924Z,100453.63
2022-09-15T15:46:52.705Z,100450.91
2022-09-15T15:49:20.872Z,100453.03
2022-09-15T15:51:47.513Z,100454.19
2022-09-15T15:54:14.429Z,100451.50
2022-09-15T15:56:40.907Z,100452.88
2022-09-15T15:59:09.359Z,100457.81
2022-09-15T16:01:35.747Z,100455.56
2022-09-15T16:04:02.254Z,100456.47
2022-09-15T16:06:28.865Z,100462.44
2022-09-15T16:08:56.075Z,100455.97
2022-09-15T16:11:22.412Z,100450.06
2022-09-15T16:13:48.753Z,100455.91
2022-09-15T16:16:17.302Z,100462.91
2022-09-15T16:18:43.684Z,100455.91
2022-09-15T16:21:16.806Z,100460.72
2022-09-15T16:23:43.153Z,100450.59
2022-09-15T16:26:11.130Z,100455.38
2022-09-15T16:28:37.475Z,100461.34
2022-09-15T16:31:04.435Z,100448.97
2022-09-15T16:33:33.443Z,100444.22
2022-09-15T16:36:06.965Z,100451.19
2022-09-15T16:38:34.292Z,100453.25
2022-09-15T16:41:01.098Z,100454.81
2022-09-15T16:43:27.444Z,100456.94
2022-09-15T16:45:54.050Z,100461.16
2022-09-15T16:48:20.388Z,100459.84
2022-09-15T16:51:08.434Z,100461.09
2022-09-15T16:53:33.814Z,100465.47
2022-09-15T16:56:00.202Z,100468.34
2022-09-15T16:58:26.605Z,100472.53
2022-09-15T17:00:53.487Z,100470.00
2022-09-15T17:03:21.089Z,100458.59
2022-09-15T17:05:49.946Z,100471.03
2022-09-15T17:08:17.215Z,100469.59
2022-09-15T17:10:43.731Z,100478.09
2022-09-15T17:13:14.173Z,100478.16
2022-09-15T17:15:41.033Z,100482.03
2022-09-15T17:18:07.948Z,100484.72
2022-09-15T17:20:39.180Z,100486.44
2022-09-15T17:23:18.096Z,100490.16
2022-09-15T17:25:51.240Z,100479.78
2022-09-15T17:28:20.989Z,100477.84
2022-09-15T17:30:48.637Z,100482.31
2022-09-15T17:33:15.565Z,100489.59
2022-09-15T17:35:42.857Z,100482.56
2022-09-15T17:38:09.201Z,100487.03
2022-09-15T17:40:36.175Z,100484.13
2022-09-15T17:43:03.109Z,100487.91
2022-09-15T17:45:33.513Z,100495.28
2022-09-15T17:47:59.959Z,100494.38
2022-09-15T17:50:28.478Z,100490.50
2022-09-15T17:52:55.301Z,100489.84
2022-09-15T17:55:27.835Z,100496.19
2022-09-15T17:57:54.986Z,100495.59
2022-09-15T18:00:22.060Z,100495.47
2022-09-15T18:02:49.810Z,100495.03
2022-09-15T18:05:18.393Z,100498.09
2022-09-15T18:07:44.839Z,100488.69
2022-09-15T18:10:11.353Z,100490.50
2022-09-15T18:12:37.718Z,100495.97
2022-09-15T18:15:04.256Z,100494.00
2022-09-15T18:17:30.603Z,100499.50
2022-09-15T18:19:56.931Z,100502.94
2022-09-15T18:22:23.882Z,100503.84
2022-09-15T18:24:50.229Z,100508.00
2022-09-15T18:27:16.612Z,100514.72
2022-09-15T18:29:42.994Z,100515.31
2022-09-15T18:32:09.357Z,100518.19
2022-09-15T18:34:35.986Z,100522.47
2022-09-15T18:37:02.575Z,100515.28
2022-09-15T18:39:29.430Z,100517.19
2022-09-15T18:41:55.796Z,100512.91
2022-09-15T18:44:22.881Z,100514.28
2022-09-15T18:46:49.260Z,100513.22
2022-09-15T18:49:15.630Z,100512.75
2022-09-15T18:51:51.500Z,100518.00
2022-09-15T18:54:18.299Z,100522.06
2022-09-15T18:56:44.720Z,100518.84
2022-09-15T18:59:12.447Z,100525.84
2022-09-15T19:01:40.977Z,100528.47
2022-09-15T19:04:07.432Z,100533.56
2022-09-15T19:06:35.373Z,100530.94
2022-09-15T19:09:02.338Z,100536.00
2022-09-15T19:11:29.445Z,100541.09
2022-09-15T19:13:55.864Z,100536.22
2022-09-15T19:16:34.515Z,100542.31
2022-09-15T19:19:06.746Z,100535.03
2022-09-15T19:21:33.615Z,100545.75
2022-09-15T19:23:59.973Z,100547.19
2022-09-15T19:26:29.290Z,100550.00
2022-09-15T19:28:56.361Z,100555.88
2022-09-15T19:31:23.726Z,100555.28
2022-09-15T19:33:50.202Z,100555.88
2022-09-15T19:36:28.076Z,100553.44
2022-09-15T19:38:55.881Z,100557.09
2022-09-15T19:41:22.247Z,100561.34
2022-09-15T19:43:48.665Z,100559.34
2022-09-15T19:46:16.289Z,100561.53
2022-09-15T19:48:46.507Z,100564.16
2022-09-15T19:51:16.546Z,100571.25
2022-09-15T19:53:43.331Z,100575.72
2022-09-15T19:56:16.904Z,100568.03
2022-09-15T19:58:43.690Z,100573.47
2022-09-15T20:01:10.499Z,100572.69
2022-09-15T20:03:37.131Z,100571.25
2022-09-15T20:06:08.313Z,100572.06
2022-09-15T20:08:35.696Z,100577.09
2022-09-15T20:11:05.835Z,100575.50
2022-09-15T20:13:32.295Z,100574.31
2022-09-15T20:16:02.319Z,100575.91
2022-09-15T20:18:29.236Z,100581.13
2022-09-15T20:20:55.584Z,100581.97
2022-09-15T20:23:22.098Z,100579.34
2022-09-15T20:25:58.445Z,100580.75
2022-09-15T20:28:25.548Z,100587.47
2022-09-15T20:31:06.038Z,100598.00
2022-09-15T20:33:33.652Z,100604.63
2022-09-15T20:36:00.778Z,100599.53
2022-09-15T20:38:27.146Z,100601.91
2022-09-15T20:40:54.764Z,100604.53
2022-09-15T20:43:21.672Z,100607.41
2022-09-15T20:45:58.097Z,100605.78
2022-09-15T20:48:24.945Z,100607.16
2022-09-15T20:50:51.361Z,100605.34
2022-09-15T20:53:17.740Z,100613.81
2022-09-15T20:55:50.551Z,100617.72
2022-09-15T20:58:16.963Z,100614.56
2022-09-15T21:00:43.434Z,100613.81
2022-09-15T21:03:09.875Z,100607.59
2022-09-15T21:05:36.233Z,100603.34
2022-09-15T21:08:02.592Z,100611.41
2022-09-15T21:10:30.257Z,100611.41
2022-09-15T21:12:57.192Z,100613.66
2022-09-15T21:15:23.576Z,100613.22
2022-09-15T21:17:49.907Z,100611.56
2022-09-15T21:20:16.478Z,100613.41
2022-09-15T21:22:42.817Z,100615.03
2022-09-15T21:25:09.192Z,100610.00
2022-09-15T21:27:35.627Z,100615.25
2022-09-15T21:30:02.033Z,100613.81
2022-09-15T21:32:29.702Z,100615.44
2022-09-15T21:34:56.195Z,100618.88
2022-09-15T21:37:22.622Z,100630.84
2022-09-15T21:39:49.030Z,100629.84
2022-09-15T21:42:15.454Z,100632.41
2022-09-15T21:44:41.813Z,100626.75
2022-09-15T21:47:08.361Z,100618.31
2022-09-15T21:49:34.698Z,100619.25
2022-09-15T21:52:01.091Z,100619.94
2022-09-15T21:54:27.418Z,100627.28
2022-09-15T21:56:53.831Z,100629.44
2022-09-15T21:59:20.189Z,100628.91
2022-09-15T22:01:46.618Z,100622.88
2022-09-15T22:04:13.339Z,100623.13
2022-09-15T22:06:40.687Z,100635.44
2022-09-15T22:09:14.597Z,100630.13
2022-09-15T22:11:41.049Z,100633.94
2022-09-15T22:14:11.496Z,100641.25
2022-09-15T22:16:38.589Z,100636.56
2022-09-15T22:19:06.713Z,100639.09
2022-09-15T22:21:36.553Z,100634.25
2022-09-15T22:24:07.276Z,100636.75
2022-09-15T22:26:35.232Z,100641.94
2022-09-15T22:29:01.867Z,100642.06
2022-09-15T22:31:28.878Z,100641.97
2022-09-15T22:33:55.380Z,100641.03
2022-09-15T22:36:28.110Z,100633.56
2022-09-15T22:38:56.349Z,100637.84
2022-09-15T22:41:25.692Z,100640.75
2022-09-15T22:43:52.100Z,100650.00
2022-09-15T22:46:19.428Z,100637.53
2022-09-15T22:48:46.078Z,100636.13
2022-09-15T22:51:13.112Z,100630.63
2022-09-15T22:53:39.529Z,100637.84
2022-09-15T22:56:08.064Z,100636.03
2022-09-15T22:58:35.793Z,100622.75
2022-09-15T23:01:06.507Z,100629.69
2022-09-15T23:03:33.062Z,100627.63
2022-09-15T23:06:00.306Z,100629.91
2022-09-15T23:08:26.702Z,100617.38
2022-09-15T23:10:53.257Z,100625.59
2022-09-15T23:13:19.689Z,100629.22
2022-09-15T23:15:46.065Z,100625.75
2022-09-15T23:18:12.414Z,100628.09
2022-09-15T23:20:40.311Z,100624.56
2022-09-15T23:23:06.650Z,100623.56
2022-09-15T23:25:33.029Z,100616.66
2022-09-15T23:27:59.365Z,100622.75
2022-09-15T23:30:25.728Z,100625.63
2022-09-15T23:32:52.097Z,100626.69
2022-09-15T23:35:18.427Z,100627.81
2022-09-15T23:37:44.797Z,100623.38
2022-09-15T23:40:11.421Z,100626.44
2022-09-15T23:42:37.806Z,100624.53
2022-09-15T23:45:04.390Z,100628.56
2022-09-15T23:47:30.763Z,100630.91
2022-09-15T23:49:58.092Z,100612.25
2022-09-15T23:52:24.424Z,100600.25
2022-09-15T23:54:50.769Z,100598.09
2022-09-15T23:57:17.138Z,100596.03
2022-09-15T23:59:43.626Z,100591.59
